createdAt,value
2022-09-18T00:01:13.822Z,5.10
2022-09-18T00:03:44.112Z,5.10
2022-09-18T00:06:15.388Z,5.37
2022-09-18T00:08:44.581Z,6.20
2022-09-18T00:11:14.846Z,5.90
2022-09-18T00:13:43.659Z,7.17
2022-09-18T00:16:14.169Z,6.27
2022-09-18T00:18:44.174Z,6.73
2022-09-18T00:21:14.293Z,7.57
2022-09-18T00:23:42.523Z,6.50
2022-09-18T00:26:11.882Z,6.97
2022-09-18T00:28:40.128Z,6.63
2022-09-18T00:31:10.020Z,6.60
2022-09-18T00:33:39.215Z,6.63
2022-09-18T00:36:10.471Z,6.80
2022-09-18T00:38:38.895Z,6.33
2022-09-18T00:41:09.511Z,5.00
2022-09-18T00:43:38.381Z,4.60
2022-09-18T00:46:08.879Z,4.20
2022-09-18T00:48:46.476Z,4.60
2022-09-18T00:51:17.811Z,4.30
2022-09-18T00:53:51.611Z,4.73
2022-09-18T00:56:19.649Z,4.93
2022-09-18T00:58:47.655Z,4.70
2022-09-18T01:01:15.665Z,4.33
2022-09-18T01:03:44.099Z,3.73
2022-09-18T01:06:18.151Z,3.80
2022-09-18T01:08:56.583Z,3.37
2022-09-18T01:11:36.317Z,3.40
2022-09-18T01:14:24.460Z,2.73
2022-09-18T01:16:59.844Z,3.17
2022-09-18T01:19:50.291Z,2.73
2022-09-18T01:22:31.908Z,2.63
2022-09-18T01:25:22.299Z,3.30
2022-09-18T01:28:08.358Z,3.07
2022-09-18T01:30:41.795Z,3.27
2022-09-18T01:33:14.900Z,3.07
2022-09-18T01:35:48.481Z,2.90
2022-09-18T01:38:21.456Z,2.93
2022-09-18T01:40:54.424Z,2.97
2022-09-18T01:43:27.434Z,2.77
2022-09-18T01:45:58.483Z,2.87
2022-09-18T01:48:35.389Z,3.03
2022-09-18T01:51:10.719Z,3.40
2022-09-18T01:53:44.495Z,3.17
2022-09-18T01:56:16.453Z,3.00
2022-09-18T01:58:47.589Z,3.60
2022-09-18T02:01:22.513Z,3.77
2022-09-18T02:03:56.624Z,3.37
2022-09-18T02:06:30.436Z,4.33
2022-09-18T02:09:01.839Z,3.47
2022-09-18T02:11:34.354Z,3.37
2022-09-18T02:14:07.976Z,3.33
2022-09-18T02:17:05.637Z,3.00
2022-09-18T02:19:39.488Z,3.20
2022-09-18T02:22:11.680Z,3.00
2022-09-18T02:24:41.689Z,3.40
2022-09-18T02:27:12.480Z,3.07
2022-09-18T02:29:43.778Z,2.67
2022-09-18T02:32:12.216Z,2.63
2022-09-18T02:34:41.934Z,2.20
2022-09-18T02:37:28.409Z,2.27
2022-09-18T02:40:10.958Z,2.33
2022-09-18T02:42:48.679Z,1.90
2022-09-18T02:45:27.229Z,2.20
2022-09-18T02:48:12.220Z,2.20
2022-09-18T02:50:54.373Z,2.15
2022-09-18T02:53:29.526Z,1.70
2022-09-18T02:56:03.328Z,1.77
2022-09-18T02:58:40.572Z,1.73
2022-09-18T03:01:13.484Z,2.40
2022-09-18T03:03:42.643Z,1.50
2022-09-18T03:06:12.259Z,1.70
2022-09-18T03:08:40.667Z,1.90
2022-09-18T03:11:09.011Z,1.50
2022-09-18T03:13:37.106Z,1.70
2022-09-18T03:16:04.985Z,1.73
2022-09-18T03:18:34.138Z,1.60
2022-09-18T03:21:01.998Z,1.40
2022-09-18T03:23:29.915Z,1.90
2022-09-18T03:26:08.967Z,1.50
2022-09-18T03:28:36.977Z,1.73
2022-09-18T03:31:04.981Z,1.63
2022-09-18T03:33:35.734Z,1.63
2022-09-18T03:36:04.067Z,1.40
2022-09-18T03:38:31.906Z,1.67
2022-09-18T03:41:00.042Z,1.70
2022-09-18T03:43:28.366Z,1.60
2022-09-18T03:45:56.252Z,1.90
2022-09-18T03:48:24.219Z,1.60
2022-09-18T03:50:53.739Z,1.70
2022-09-18T03:53:22.526Z,2.00
2022-09-18T03:56:08.619Z,1.60
2022-09-18T03:58:56.471Z,1.63
2022-09-18T04:01:57.449Z,1.80
2022-09-18T04:04:28.337Z,1.60
2022-09-18T04:07:15.561Z,1.40
2022-09-18T04:10:15.647Z,1.97
2022-09-18T04:12:45.566Z,1.60
2022-09-18T04:15:21.899Z,1.70
2022-09-18T04:17:50.479Z,1.50
2022-09-18T04:20:18.492Z,1.77
2022-09-18T04:22:47.705Z,1.70
2022-09-18T04:25:17.477Z,1.63
2022-09-18T04:27:47.302Z,1.47
2022-09-18T04:30:16.356Z,1.40
2022-09-18T04:32:45.775Z,1.23
2022-09-18T04:35:14.054Z,1.50
2022-09-18T04:37:45.433Z,1.80
2022-09-18T04:40:15.852Z,1.50
2022-09-18T04:42:44.160Z,1.40
2022-09-18T04:45:12.234Z,2.10
2022-09-18T04:47:41.944Z,1.40
2022-09-18T04:50:10.888Z,1.43
2022-09-18T04:52:58.719Z,1.77
2022-09-18T04:55:29.657Z,1.80
2022-09-18T04:57:57.599Z,1.60
2022-09-18T05:00:25.585Z,1.80
2022-09-18T05:02:53.955Z,1.73
2022-09-18T05:05:25.284Z,2.40
2022-09-18T05:07:53.266Z,2.03
2022-09-18T05:10:22.747Z,1.80
2022-09-18T05:12:51.947Z,1.80
2022-09-18T05:15:20.986Z,2.00
2022-09-18T05:17:58.473Z,2.00
2022-09-18T05:20:26.270Z,2.10
2022-09-18T05:22:55.803Z,2.10
2022-09-18T05:25:24.920Z,2.10
2022-09-18T05:27:58.599Z,1.73
2022-09-18T05:30:31.636Z,2.50
2022-09-18T05:33:03.671Z,2.23
2022-09-18T05:35:34.523Z,2.13
2022-09-18T05:38:03.957Z,2.50
2022-09-18T05:40:34.607Z,1.80
2022-09-18T05:43:04.412Z,1.73
2022-09-18T05:45:34.431Z,2.57
2022-09-18T05:48:07.266Z,1.80
2022-09-18T05:50:36.300Z,2.30
2022-09-18T05:53:07.133Z,2.07
2022-09-18T05:55:50.239Z,2.00
2022-09-18T05:58:20.938Z,2.13
2022-09-18T06:00:52.367Z,1.83
2022-09-18T06:03:26.603Z,1.90
2022-09-18T06:05:55.632Z,2.00
2022-09-18T06:08:23.940Z,2.03
2022-09-18T06:10:51.979Z,1.60
2022-09-18T06:13:21.730Z,1.90
2022-09-18T06:15:53.111Z,2.20
2022-09-18T06:18:31.291Z,2.00
2022-09-18T06:21:01.627Z,2.27
2022-09-18T06:23:31.042Z,1.90
2022-09-18T06:26:06.136Z,2.00
2022-09-18T06:28:38.332Z,2.00
2022-09-18T06:31:06.987Z,1.67
2022-09-18T06:34:07.007Z,2.03
2022-09-18T06:36:35.023Z,1.90
2022-09-18T06:39:26.049Z,2.20
2022-09-18T06:42:00.265Z,1.90
2022-09-18T06:44:48.034Z,1.90
2022-09-18T06:47:17.278Z,2.00
2022-09-18T06:49:47.450Z,2.17
2022-09-18T06:52:17.619Z,1.90
2022-09-18T06:54:46.565Z,2.00
2022-09-18T06:57:29.177Z,1.93
2022-09-18T06:59:58.394Z,1.90
2022-09-18T07:02:27.629Z,1.77
2022-09-18T07:05:03.076Z,1.70
2022-09-18T07:07:30.999Z,1.50
2022-09-18T07:09:58.843Z,1.60
2022-09-18T07:12:40.283Z,1.70
2022-09-18T07:15:11.012Z,2.13
2022-09-18T07:17:38.891Z,1.60
2022-09-18T07:20:07.714Z,1.50
2022-09-18T07:22:44.923Z,1.60
2022-09-18T07:25:15.186Z,1.77
2022-09-18T07:27:44.650Z,1.60
2022-09-18T07:30:15.328Z,1.60
2022-09-18T07:32:43.987Z,1.50
2022-09-18T07:35:15.953Z,1.53
2022-09-18T07:37:44.111Z,1.50
2022-09-18T07:40:19.963Z,1.93
2022-09-18T07:43:11.210Z,1.40
2022-09-18T07:45:47.429Z,1.80
2022-09-18T07:48:15.668Z,1.63
2022-09-18T07:50:47.842Z,1.60
2022-09-18T07:53:18.460Z,1.60
2022-09-18T07:55:49.240Z,1.63
2022-09-18T07:58:17.299Z,1.90
2022-09-18T08:01:07.674Z,1.90
2022-09-18T08:03:42.419Z,1.30
2022-09-18T08:06:13.670Z,1.60
2022-09-18T08:08:55.029Z,1.40
2022-09-18T08:11:42.082Z,1.40
2022-09-18T08:14:29.092Z,1.53
2022-09-18T08:17:17.195Z,1.87
2022-09-18T08:20:04.240Z,1.53
2022-09-18T08:22:43.592Z,1.70
2022-09-18T08:25:12.931Z,1.80
2022-09-18T08:27:43.421Z,1.70
2022-09-18T08:30:14.572Z,2.40
2022-09-18T08:32:44.584Z,2.10
2022-09-18T08:35:13.467Z,1.80
2022-09-18T08:37:48.381Z,1.90
2022-09-18T08:41:12.596Z,2.50
2022-09-18T08:43:54.912Z,2.53
2022-09-18T08:46:27.708Z,2.90
2022-09-18T08:49:08.135Z,3.20
2022-09-18T08:51:42.228Z,2.67
2022-09-18T08:54:21.282Z,3.10
2022-09-18T08:57:15.773Z,2.40
2022-09-18T09:00:09.514Z,2.60
2022-09-18T09:02:41.698Z,2.40
2022-09-18T09:05:14.800Z,3.10
2022-09-18T09:08:04.162Z,2.40
2022-09-18T09:10:43.084Z,3.10
2022-09-18T09:13:38.509Z,2.60
2022-09-18T09:16:13.764Z,2.93
2022-09-18T09:18:53.919Z,2.30
2022-09-18T09:21:25.175Z,2.90
2022-09-18T09:24:09.015Z,2.17
2022-09-18T09:27:17.528Z,2.77
2022-09-18T09:30:06.101Z,2.60
2022-09-18T09:32:56.563Z,2.70
2022-09-18T09:35:48.801Z,1.97
2022-09-18T09:38:40.134Z,2.00
2022-09-18T09:41:20.635Z,2.40
2022-09-18T09:43:58.508Z,2.30
2022-09-18T09:46:48.239Z,2.20
2022-09-18T09:49:21.196Z,2.40
2022-09-18T09:51:58.660Z,1.93
2022-09-18T09:54:27.964Z,1.90
2022-09-18T09:57:03.892Z,1.43
2022-09-18T09:59:41.104Z,1.70
2022-09-18T10:02:44.640Z,1.87
2022-09-18T10:05:24.662Z,1.90
2022-09-18T10:07:59.528Z,2.10
2022-09-18T10:10:37.750Z,1.90
2022-09-18T10:13:11.935Z,1.60
2022-09-18T10:15:42.838Z,2.10
2022-09-18T10:18:18.770Z,2.10
2022-09-18T10:20:48.881Z,2.60
2022-09-18T10:23:25.647Z,2.03
2022-09-18T10:26:00.430Z,2.13
2022-09-18T10:28:30.417Z,2.40
2022-09-18T10:31:02.296Z,2.53
2022-09-18T10:33:35.576Z,2.70
2022-09-18T10:36:22.724Z,2.53
2022-09-18T10:38:51.304Z,2.33
2022-09-18T10:41:35.216Z,2.33
2022-09-18T10:44:08.115Z,2.07
2022-09-18T10:46:41.462Z,2.17
2022-09-18T10:49:19.760Z,2.17
2022-09-18T10:51:48.057Z,2.67
2022-09-18T10:54:18.999Z,3.00
2022-09-18T10:56:57.905Z,2.80
2022-09-18T10:59:35.496Z,3.10
2022-09-18T11:02:07.002Z,3.00
2022-09-18T11:04:37.593Z,2.90
2022-09-18T11:07:07.832Z,3.30
2022-09-18T11:09:39.604Z,2.90
2022-09-18T11:12:21.894Z,3.30
2022-09-18T11:14:55.183Z,2.90
2022-09-18T11:17:30.218Z,2.83
2022-09-18T11:20:00.699Z,3.13
2022-09-18T11:22:47.251Z,2.70
2022-09-18T11:25:27.342Z,2.53
2022-09-18T11:28:02.148Z,2.40
2022-09-18T11:30:38.850Z,2.63
2022-09-18T11:33:19.844Z,2.60
2022-09-18T11:35:56.435Z,2.20
2022-09-18T11:38:25.060Z,2.93
2022-09-18T11:40:55.921Z,2.17
2022-09-18T11:43:32.448Z,2.20
2022-09-18T11:46:12.313Z,2.60
2022-09-18T11:48:45.317Z,2.47
2022-09-18T11:51:19.234Z,2.47
2022-09-18T11:53:55.229Z,2.53
2022-09-18T11:56:31.799Z,2.97
2022-09-18T11:59:06.279Z,2.93
2022-09-18T12:01:38.261Z,2.37
2022-09-18T12:04:14.288Z,3.10
2022-09-18T12:06:50.956Z,3.03
2022-09-18T12:09:23.071Z,2.80
2022-09-18T12:11:57.253Z,2.03
2022-09-18T12:14:33.180Z,2.10
2022-09-18T12:17:25.110Z,1.80
2022-09-18T12:19:57.748Z,1.47
2022-09-18T12:22:32.764Z,1.00
2022-09-18T12:25:02.335Z,1.40
2022-09-18T12:27:57.812Z,1.17
2022-09-18T12:30:35.026Z,0.90
2022-09-18T12:33:13.534Z,0.90
2022-09-18T12:35:54.187Z,0.90
2022-09-18T12:38:48.030Z,0.90
2022-09-18T12:41:31.544Z,1.03
2022-09-18T12:44:32.834Z,1.00
2022-09-18T12:47:22.715Z,1.00
2022-09-18T12:50:20.491Z,1.13
2022-09-18T12:53:09.111Z,1.00
2022-09-18T12:55:51.843Z,1.00
2022-09-18T12:58:42.678Z,1.20
2022-09-18T13:01:22.535Z,1.40
2022-09-18T13:03:53.626Z,1.33
2022-09-18T13:06:30.396Z,1.30
2022-09-18T13:09:02.821Z,1.23
2022-09-18T13:11:34.831Z,1.40
2022-09-18T13:14:09.845Z,2.07
2022-09-18T13:16:47.255Z,2.20
2022-09-18T13:19:23.379Z,1.63
2022-09-18T13:21:52.396Z,1.47
2022-09-18T13:24:22.765Z,1.40
2022-09-18T13:26:52.042Z,1.40
2022-09-18T13:29:47.973Z,1.20
2022-09-18T13:32:19.151Z,1.30
2022-09-18T13:34:52.760Z,1.30
2022-09-18T13:37:22.831Z,1.13
2022-09-18T13:40:09.202Z,1.23
2022-09-18T13:42:40.392Z,1.17
2022-09-18T13:45:19.303Z,1.10
2022-09-18T13:48:02.410Z,0.87
2022-09-18T13:50:33.093Z,1.10
2022-09-18T13:53:03.867Z,0.80
2022-09-18T13:55:38.339Z,0.93
2022-09-18T13:58:49.156Z,1.00
2022-09-18T14:01:59.844Z,0.80
2022-09-18T14:04:50.706Z,0.90
2022-09-18T14:07:58.205Z,0.80
2022-09-18T14:10:32.899Z,1.00
2022-09-18T14:13:24.529Z,1.00
2022-09-18T14:15:55.951Z,1.00
2022-09-18T14:18:26.691Z,1.10
2022-09-18T14:20:58.307Z,1.13
2022-09-18T14:24:11.854Z,0.90
2022-09-18T14:26:59.715Z,1.00
2022-09-18T14:29:31.535Z,0.80
2022-09-18T14:32:01.537Z,0.90
2022-09-18T14:34:36.483Z,0.77
2022-09-18T14:37:23.311Z,0.97
2022-09-18T14:39:53.077Z,0.80
2022-09-18T14:42:33.098Z,0.60
2022-09-18T14:45:09.886Z,0.90
2022-09-18T14:47:38.543Z,1.00
2022-09-18T14:50:26.926Z,0.80
2022-09-18T14:52:55.319Z,0.80
2022-09-18T14:55:28.103Z,0.80
2022-09-18T14:58:00.480Z,1.10
2022-09-18T15:00:31.254Z,0.80
2022-09-18T15:03:21.897Z,0.90
2022-09-18T15:05:52.970Z,1.20
2022-09-18T15:08:26.649Z,1.10
2022-09-18T15:10:58.831Z,1.03
2022-09-18T15:13:31.969Z,1.10
2022-09-18T15:16:01.782Z,1.10
2022-09-18T15:18:31.210Z,1.17
2022-09-18T15:21:03.070Z,1.20
2022-09-18T15:23:33.789Z,0.97
2022-09-18T15:26:06.851Z,1.00
2022-09-18T15:28:37.631Z,1.20
2022-09-18T15:31:08.934Z,1.10
2022-09-18T15:33:40.025Z,1.33
2022-09-18T15:36:08.299Z,0.97
2022-09-18T15:38:40.907Z,1.40
2022-09-18T15:41:23.166Z,1.13
2022-09-18T15:43:52.383Z,1.10
2022-09-18T15:46:28.318Z,1.27
2022-09-18T15:48:59.383Z,1.20
2022-09-18T15:51:29.290Z,1.20
2022-09-18T15:54:27.277Z,1.17
2022-09-18T15:56:57.410Z,1.20
2022-09-18T15:59:30.516Z,1.60
2022-09-18T16:01:58.857Z,1.30
2022-09-18T16:04:32.255Z,0.97
2022-09-18T16:07:03.958Z,1.10
2022-09-18T16:09:41.252Z,1.10
2022-09-18T16:12:39.769Z,1.00
2022-09-18T16:15:26.118Z,1.33
2022-09-18T16:18:01.901Z,1.30
2022-09-18T16:20:36.455Z,1.60
2022-09-18T16:23:24.165Z,1.10
2022-09-18T16:26:11.216Z,1.40
2022-09-18T16:28:43.598Z,1.10
2022-09-18T16:31:16.017Z,1.30
2022-09-18T16:33:55.242Z,1.40
2022-09-18T16:36:27.786Z,1.20
2022-09-18T16:38:56.218Z,1.50
2022-09-18T16:41:24.265Z,1.60
2022-09-18T16:43:53.788Z,1.30
2022-09-18T16:46:25.079Z,1.50
2022-09-18T16:48:53.621Z,1.60
2022-09-18T16:51:22.716Z,1.50
2022-09-18T16:53:50.763Z,1.57
2022-09-18T16:56:27.246Z,1.53
2022-09-18T16:58:57.743Z,1.40
2022-09-18T17:01:28.209Z,1.80
2022-09-18T17:03:56.047Z,1.67
2022-09-18T17:06:23.847Z,1.60
2022-09-18T17:08:51.699Z,1.50
2022-09-18T17:11:19.509Z,1.50
2022-09-18T17:13:47.398Z,1.60
2022-09-18T17:16:30.441Z,1.80
2022-09-18T17:19:04.463Z,4.30
2022-09-18T17:21:32.270Z,1.40
2022-09-18T17:24:02.010Z,1.73
2022-09-18T17:26:30.982Z,1.90
2022-09-18T17:28:59.083Z,1.43
2022-09-18T17:31:27.594Z,1.47
2022-09-18T17:33:56.002Z,1.60
2022-09-18T17:36:25.267Z,1.90
2022-09-18T17:38:53.054Z,1.80
2022-09-18T17:41:21.130Z,1.50
2022-09-18T17:43:52.357Z,1.40
2022-09-18T17:46:21.086Z,1.70
2022-09-18T17:48:49.216Z,1.70
2022-09-18T17:51:18.378Z,2.20
2022-09-18T17:53:50.042Z,2.03
2022-09-18T17:56:19.993Z,2.40
2022-09-18T17:58:48.475Z,2.03
2022-09-18T18:01:18.590Z,2.00
2022-09-18T18:03:48.349Z,2.70
2022-09-18T18:06:21.565Z,2.27
2022-09-18T18:08:51.850Z,3.40
2022-09-18T18:11:21.942Z,8.43
2022-09-18T18:13:51.040Z,14.20
2022-09-18T18:16:23.438Z,7.77
2022-09-18T18:18:52.430Z,5.60
2022-09-18T18:21:20.240Z,3.07
2022-09-18T18:23:49.018Z,2.43
2022-09-18T18:26:18.555Z,2.63
2022-09-18T18:28:46.519Z,2.97
2022-09-18T18:31:17.287Z,2.27
2022-09-18T18:33:45.350Z,2.60
2022-09-18T18:36:15.262Z,2.57
2022-09-18T18:38:44.497Z,2.93
2022-09-18T18:41:14.590Z,3.10
2022-09-18T18:43:44.592Z,3.40
2022-09-18T18:46:15.380Z,3.00
2022-09-18T18:48:45.034Z,2.90
2022-09-18T18:51:14.699Z,3.50
2022-09-18T18:53:43.695Z,2.70
2022-09-18T18:56:13.027Z,2.70
2022-09-18T18:58:42.726Z,2.80
2022-09-18T19:01:13.171Z,2.53
2022-09-18T19:03:44.052Z,3.03
2022-09-18T19:06:12.514Z,2.60
2022-09-18T19:08:40.331Z,3.10
2022-09-18T19:11:09.263Z,3.30
2022-09-18T19:13:41.184Z,2.90
2022-09-18T19:16:10.401Z,2.60
2022-09-18T19:18:38.738Z,3.10
2022-09-18T19:21:07.623Z,2.57
2022-09-18T19:23:35.950Z,2.40
2022-09-18T19:26:04.181Z,2.87
2022-09-18T19:28:32.538Z,2.03
2022-09-18T19:31:04.075Z,2.17
2022-09-18T19:33:34.303Z,2.23
2022-09-18T19:36:06.738Z,2.60
2022-09-18T19:38:36.507Z,2.37
2022-09-18T19:41:08.044Z,2.93
2022-09-18T19:43:38.006Z,2.83
2022-09-18T19:46:08.495Z,2.50
2022-09-18T19:48:37.798Z,2.70
2022-09-18T19:51:06.497Z,2.70
2022-09-18T19:53:34.841Z,2.57
2022-09-18T19:56:04.830Z,2.73
2022-09-18T19:58:34.119Z,2.67
2022-09-18T20:01:02.657Z,3.27
2022-09-18T20:03:30.534Z,2.60
2022-09-18T20:06:01.082Z,2.97
2022-09-18T20:08:28.888Z,3.23
2022-09-18T20:10:56.746Z,3.60
2022-09-18T20:13:26.094Z,3.03
2022-09-18T20:16:05.141Z,3.07
2022-09-18T20:18:33.323Z,3.00
2022-09-18T20:21:07.473Z,3.73
2022-09-18T20:23:35.619Z,3.00
2022-09-18T20:26:07.375Z,3.27
2022-09-18T20:28:35.754Z,3.83
2022-09-18T20:31:04.403Z,3.77
2022-09-18T20:33:32.621Z,3.57
2022-09-18T20:36:00.634Z,3.37
2022-09-18T20:38:32.679Z,3.03
2022-09-18T20:41:06.525Z,3.80
2022-09-18T20:43:35.757Z,3.40
2022-09-18T20:46:07.209Z,3.77
2022-09-18T20:48:36.611Z,4.70
2022-09-18T20:51:07.912Z,3.70
2022-09-18T20:53:38.210Z,4.07
2022-09-18T20:56:06.332Z,4.20
2022-09-18T20:58:35.059Z,4.97
2022-09-18T21:01:10.963Z,4.33
2022-09-18T21:03:40.058Z,3.90
2022-09-18T21:06:22.247Z,4.17
2022-09-18T21:08:54.369Z,4.37
2022-09-18T21:11:25.061Z,4.57
2022-09-18T21:13:54.138Z,5.23
2022-09-18T21:16:23.145Z,4.13
2022-09-18T21:18:55.556Z,5.10
2022-09-18T21:21:23.501Z,4.33
2022-09-18T21:23:57.018Z,5.10
2022-09-18T21:26:27.110Z,5.90
2022-09-18T21:28:56.291Z,5.10
2022-09-18T21:31:24.561Z,5.67
2022-09-18T21:33:53.770Z,5.53
2022-09-18T21:36:22.551Z,6.63
2022-09-18T21:38:53.186Z,5.13
2022-09-18T21:41:23.050Z,5.37
2022-09-18T21:43:53.982Z,5.23
2022-09-18T21:46:23.770Z,5.77
2022-09-18T21:48:54.514Z,6.07
2022-09-18T21:51:22.764Z,5.80
2022-09-18T21:53:51.925Z,5.47
2022-09-18T21:56:20.949Z,4.97
2022-09-18T21:58:50.155Z,5.57
2022-09-18T22:01:20.296Z,5.60
2022-09-18T22:03:52.205Z,5.60
2022-09-18T22:06:21.381Z,5.30
2022-09-18T22:08:50.849Z,6.00
2022-09-18T22:11:22.710Z,5.80
2022-09-18T22:13:51.765Z,6.73
2022-09-18T22:16:20.210Z,6.03
2022-09-18T22:18:48.385Z,6.43
2022-09-18T22:21:20.334Z,6.33
2022-09-18T22:23:53.149Z,6.70
2022-09-18T22:26:23.726Z,5.40
2022-09-18T22:28:53.332Z,5.27
2022-09-18T22:31:22.155Z,5.37
2022-09-18T22:33:53.538Z,5.77
2022-09-18T22:36:21.963Z,5.00
2022-09-18T22:38:49.989Z,5.77
2022-09-18T22:41:17.905Z,5.33
2022-09-18T22:43:47.296Z,4.80
2022-09-18T22:46:17.162Z,4.90
2022-09-18T22:48:45.223Z,4.67
2022-09-18T22:51:14.964Z,4.70
2022-09-18T22:53:49.166Z,5.23
2022-09-18T22:56:18.061Z,5.10
2022-09-18T22:58:48.083Z,4.87
2022-09-18T23:01:19.227Z,5.87
2022-09-18T23:03:49.286Z,4.43
2022-09-18T23:06:21.615Z,5.27
2022-09-18T23:08:53.182Z,4.97
2022-09-18T23:11:23.333Z,6.43
2022-09-18T23:13:54.446Z,6.03
2022-09-18T23:16:23.967Z,5.33
2022-09-18T23:18:54.199Z,5.13
2022-09-18T23:21:23.997Z,5.00
2022-09-18T23:23:52.117Z,4.70
2022-09-18T23:26:23.161Z,5.13
2022-09-18T23:28:54.235Z,6.83
2022-09-18T23:31:25.574Z,5.13
2022-09-18T23:33:54.846Z,4.80
2022-09-18T23:36:24.851Z,5.03
2022-09-18T23:38:55.719Z,4.93
2022-09-18T23:41:23.758Z,4.77
2022-09-18T23:43:54.384Z,4.73
2022-09-18T23:46:23.709Z,4.70
2022-09-18T23:48:55.559Z,5.27
2022-09-18T23:51:24.563Z,4.30
2022-09-18T23:53:52.923Z,4.73
2022-09-18T23:56:20.710Z,4.90
2022-09-18T23:58:53.090Z,5.23
